sensor_id;sensor_type;location;lat;lon;timestamp;temperature;humidity
12720;DHT22;6424;48.520;11.228;2023-05-16T00:00:31;8.80;99.90
12720;DHT22;6424;48.520;11.228;2023-05-16T00:03:14;8.80;99.90
12720;DHT22;6424;48.520;11.228;2023-05-16T00:05:55;8.80;99.90
12720;DHT22;6424;48.520;11.228;2023-05-16T00:08:37;8.80;99.90
12720;DHT22;6424;48.520;11.228;2023-05-16T00:11:18;8.80;99.90
12720;DHT22;6424;48.520;11.228;2023-05-16T00:13:58;8.80;99.90
12720;DHT22;6424;48.520;11.228;2023-05-16T00:16:40;8.80;99.90
12720;DHT22;6424;48.520;11.228;2023-05-16T00:19:21;8.80;99.90
12720;DHT22;6424;48.520;11.228;2023-05-16T00:22:03;8.80;99.90
12720;DHT22;6424;48.520;11.228;2023-05-16T00:24:44;8.80;99.90
12720;DHT22;6424;48.520;11.228;2023-05-16T00:27:24;8.70;99.90
12720;DHT22;6424;48.520;11.228;2023-05-16T00:30:06;8.70;99.90
12720;DHT22;6424;48.520;11.228;2023-05-16T00:32:47;8.70;99.90
12720;DHT22;6424;48.520;11.228;2023-05-16T00:35:27;8.60;99.90
12720;DHT22;6424;48.520;11.228;2023-05-16T00:38:08;8.60;99.90
12720;DHT22;6424;48.520;11.228;2023-05-16T00:40:49;8.60;99.90
12720;DHT22;6424;48.520;11.228;2023-05-16T00:43:30;8.60;99.90
12720;DHT22;6424;48.520;11.228;2023-05-16T00:46:11;8.60;99.90
12720;DHT22;6424;48.520;11.228;2023-05-16T00:48:36;8.50;99.90
12720;DHT22;6424;48.520;11.228;2023-05-16T00:51:18;8.50;99.90
12720;DHT22;6424;48.520;11.228;2023-05-16T00:53:59;8.50;99.90
12720;DHT22;6424;48.520;11.228;2023-05-16T00:56:40;8.50;99.90
12720;DHT22;6424;48.520;11.228;2023-05-16T00:59:22;8.50;99.90
12720;DHT22;6424;48.520;11.228;2023-05-16T01:02:03;8.50;99.90
12720;DHT22;6424;48.520;11.228;2023-05-16T01:04:45;8.50;99.90
12720;DHT22;6424;48.520;11.228;2023-05-16T01:07:27;8.50;99.90
12720;DHT22;6424;48.520;11.228;2023-05-16T01:10:09;8.50;99.90
12720;DHT22;6424;48.520;11.228;2023-05-16T01:15:47;8.50;99.90
12720;DHT22;6424;48.520;11.228;2023-05-16T01:18:38;8.50;99.90
12720;DHT22;6424;48.520;11.228;2023-05-16T01:24:32;8.50;99.90
12720;DHT22;6424;48.520;11.228;2023-05-16T01:27:15;8.50;99.90
12720;DHT22;6424;48.520;11.228;2023-05-16T01:29:56;8.50;99.90
12720;DHT22;6424;48.520;11.228;2023-05-16T01:32:37;8.50;99.90
12720;DHT22;6424;48.520;11.228;2023-05-16T01:35:18;8.50;99.90
12720;DHT22;6424;48.520;11.228;2023-05-16T01:38:29;8.50;99.90
12720;DHT22;6424;48.520;11.228;2023-05-16T01:41:38;8.60;99.90
12720;DHT22;6424;48.520;11.228;2023-05-16T01:44:34;8.60;99.90
12720;DHT22;6424;48.520;11.228;2023-05-16T01:47:16;8.60;99.90
12720;DHT22;6424;48.520;11.228;2023-05-16T01:50:13;8.60;99.90
12720;DHT22;6424;48.520;11.228;2023-05-16T01:53:08;8.60;99.90
12720;DHT22;6424;48.520;11.228;2023-05-16T01:55:51;8.60;99.90
12720;DHT22;6424;48.520;11.228;2023-05-16T01:58:33;8.70;99.90
12720;DHT22;6424;48.520;11.228;2023-05-16T02:01:15;8.70;99.90
12720;DHT22;6424;48.520;11.228;2023-05-16T02:03:57;8.70;99.90
12720;DHT22;6424;48.520;11.228;2023-05-16T02:06:38;8.70;99.90
12720;DHT22;6424;48.520;11.228;2023-05-16T02:09:19;8.70;99.90
12720;DHT22;6424;48.520;11.228;2023-05-16T02:12:00;8.60;99.90
12720;DHT22;6424;48.520;11.228;2023-05-16T02:14:41;8.70;99.90
12720;DHT22;6424;48.520;11.228;2023-05-16T02:17:22;8.70;99.90
12720;DHT22;6424;48.520;11.228;2023-05-16T02:19:48;8.70;99.90
12720;DHT22;6424;48.520;11.228;2023-05-16T02:22:14;8.70;99.90
12720;DHT22;6424;48.520;11.228;2023-05-16T02:24:55;8.70;99.90
12720;DHT22;6424;48.520;11.228;2023-05-16T02:27:21;8.70;99.90
12720;DHT22;6424;48.520;11.228;2023-05-16T02:30:02;8.70;99.90
12720;DHT22;6424;48.520;11.228;2023-05-16T02:32:44;8.70;99.90
12720;DHT22;6424;48.520;11.228;2023-05-16T02:35:25;8.70;99.90
12720;DHT22;6424;48.520;11.228;2023-05-16T02:38:05;8.70;99.90
12720;DHT22;6424;48.520;11.228;2023-05-16T02:40:31;8.70;99.90
12720;DHT22;6424;48.520;11.228;2023-05-16T02:43:12;8.70;99.90
12720;DHT22;6424;48.520;11.228;2023-05-16T02:45:53;8.70;99.90
12720;DHT22;6424;48.520;11.228;2023-05-16T02:48:34;8.70;99.90
12720;DHT22;6424;48.520;11.228;2023-05-16T02:51:15;8.70;99.90
12720;DHT22;6424;48.520;11.228;2023-05-16T02:53:55;8.60;99.90
12720;DHT22;6424;48.520;11.228;2023-05-16T02:56:36;8.70;99.90
12720;DHT22;6424;48.520;11.228;2023-05-16T02:59:17;8.60;99.90
12720;DHT22;6424;48.520;11.228;2023-05-16T03:01:58;8.70;99.90
12720;DHT22;6424;48.520;11.228;2023-05-16T03:04:39;8.70;99.90
12720;DHT22;6424;48.520;11.228;2023-05-16T03:07:20;8.70;99.90
12720;DHT22;6424;48.520;11.228;2023-05-16T03:10:00;8.70;99.90
12720;DHT22;6424;48.520;11.228;2023-05-16T03:12:41;8.60;99.90
12720;DHT22;6424;48.520;11.228;2023-05-16T03:15:07;8.60;99.90
12720;DHT22;6424;48.520;11.228;2023-05-16T03:17:48;8.60;99.90
12720;DHT22;6424;48.520;11.228;2023-05-16T03:20:29;8.60;99.90
12720;DHT22;6424;48.520;11.228;2023-05-16T03:23:10;8.70;99.90
12720;DHT22;6424;48.520;11.228;2023-05-16T03:25:51;8.70;99.90
12720;DHT22;6424;48.520;11.228;2023-05-16T03:28:31;8.60;99.90
12720;DHT22;6424;48.520;11.228;2023-05-16T03:31:12;8.70;99.90
12720;DHT22;6424;48.520;11.228;2023-05-16T03:33:53;8.70;99.90
12720;DHT22;6424;48.520;11.228;2023-05-16T03:36:34;8.70;99.90
12720;DHT22;6424;48.520;11.228;2023-05-16T03:39:16;8.70;99.90
12720;DHT22;6424;48.520;11.228;2023-05-16T03:41:57;8.60;99.90
12720;DHT22;6424;48.520;11.228;2023-05-16T03:44:37;8.70;99.90
12720;DHT22;6424;48.520;11.228;2023-05-16T03:47:03;8.70;99.90
12720;DHT22;6424;48.520;11.228;2023-05-16T03:49:44;8.70;99.90
12720;DHT22;6424;48.520;11.228;2023-05-16T03:52:25;8.70;99.90
12720;DHT22;6424;48.520;11.228;2023-05-16T03:55:06;8.70;99.90
12720;DHT22;6424;48.520;11.228;2023-05-16T03:57:47;8.70;99.90
12720;DHT22;6424;48.520;11.228;2023-05-16T04:00:29;8.70;99.90
12720;DHT22;6424;48.520;11.228;2023-05-16T04:02:55;8.80;99.90
12720;DHT22;6424;48.520;11.228;2023-05-16T04:05:36;8.80;99.90
12720;DHT22;6424;48.520;11.228;2023-05-16T04:08:16;8.80;99.90
12720;DHT22;6424;48.520;11.228;2023-05-16T04:10:57;8.80;99.90
12720;DHT22;6424;48.520;11.228;2023-05-16T04:13:38;8.80;99.90
12720;DHT22;6424;48.520;11.228;2023-05-16T04:16:19;8.90;99.90
12720;DHT22;6424;48.520;11.228;2023-05-16T04:18:45;8.90;99.90
12720;DHT22;6424;48.520;11.228;2023-05-16T04:21:26;8.90;99.90
12720;DHT22;6424;48.520;11.228;2023-05-16T04:24:07;8.90;99.90
12720;DHT22;6424;48.520;11.228;2023-05-16T04:26:48;8.90;99.90
12720;DHT22;6424;48.520;11.228;2023-05-16T04:29:28;8.90;99.90
12720;DHT22;6424;48.520;11.228;2023-05-16T04:32:09;8.90;99.90
12720;DHT22;6424;48.520;11.228;2023-05-16T04:34:50;8.90;99.90
12720;DHT22;6424;48.520;11.228;2023-05-16T04:37:34;8.90;99.90
12720;DHT22;6424;48.520;11.228;2023-05-16T04:40:15;9.00;99.90
12720;DHT22;6424;48.520;11.228;2023-05-16T04:42:56;9.00;99.90
12720;DHT22;6424;48.520;11.228;2023-05-16T04:45:37;9.00;99.90
12720;DHT22;6424;48.520;11.228;2023-05-16T04:48:18;9.00;99.90
12720;DHT22;6424;48.520;11.228;2023-05-16T04:50:59;9.00;99.90
12720;DHT22;6424;48.520;11.228;2023-05-16T04:53:40;9.10;99.90
12720;DHT22;6424;48.520;11.228;2023-05-16T04:56:21;9.10;99.90
12720;DHT22;6424;48.520;11.228;2023-05-16T04:59:02;9.20;99.90
12720;DHT22;6424;48.520;11.228;2023-05-16T05:01:29;9.20;99.90
12720;DHT22;6424;48.520;11.228;2023-05-16T05:04:09;9.20;99.90
12720;DHT22;6424;48.520;11.228;2023-05-16T05:06:50;9.20;99.90
12720;DHT22;6424;48.520;11.228;2023-05-16T05:09:31;9.30;99.90
12720;DHT22;6424;48.520;11.228;2023-05-16T05:12:12;9.30;99.90
12720;DHT22;6424;48.520;11.228;2023-05-16T05:14:37;9.30;99.90
12720;DHT22;6424;48.520;11.228;2023-05-16T05:17:19;9.30;99.90
12720;DHT22;6424;48.520;11.228;2023-05-16T05:20:01;9.40;99.90
12720;DHT22;6424;48.520;11.228;2023-05-16T05:22:46;9.40;99.90
12720;DHT22;6424;48.520;11.228;2023-05-16T05:25:27;9.50;99.90
12720;DHT22;6424;48.520;11.228;2023-05-16T05:28:07;9.50;99.90
12720;DHT22;6424;48.520;11.228;2023-05-16T05:30:48;9.60;99.90
12720;DHT22;6424;48.520;11.228;2023-05-16T05:33:29;9.60;99.90
12720;DHT22;6424;48.520;11.228;2023-05-16T05:36:10;9.70;99.90
12720;DHT22;6424;48.520;11.228;2023-05-16T05:38:51;9.70;99.90
12720;DHT22;6424;48.520;11.228;2023-05-16T05:41:32;9.80;99.90
12720;DHT22;6424;48.520;11.228;2023-05-16T05:44:13;9.80;99.90
12720;DHT22;6424;48.520;11.228;2023-05-16T05:46:54;9.80;99.90
12720;DHT22;6424;48.520;11.228;2023-05-16T05:49:36;9.90;99.90
12720;DHT22;6424;48.520;11.228;2023-05-16T05:52:17;9.90;99.90
12720;DHT22;6424;48.520;11.228;2023-05-16T05:54:58;10.00;99.90
12720;DHT22;6424;48.520;11.228;2023-05-16T05:57:24;10.00;99.90
12720;DHT22;6424;48.520;11.228;2023-05-16T06:00:05;10.10;99.90
12720;DHT22;6424;48.520;11.228;2023-05-16T06:02:47;10.10;99.90
12720;DHT22;6424;48.520;11.228;2023-05-16T06:05:28;10.20;99.90
12720;DHT22;6424;48.520;11.228;2023-05-16T06:08:08;10.20;99.90
12720;DHT22;6424;48.520;11.228;2023-05-16T06:10:50;10.30;99.90
12720;DHT22;6424;48.520;11.228;2023-05-16T06:13:31;10.30;99.90
12720;DHT22;6424;48.520;11.228;2023-05-16T06:16:11;10.40;99.90
12720;DHT22;6424;48.520;11.228;2023-05-16T06:18:52;10.40;99.90
12720;DHT22;6424;48.520;11.228;2023-05-16T06:21:33;10.50;99.90
12720;DHT22;6424;48.520;11.228;2023-05-16T06:24:14;10.50;99.90
12720;DHT22;6424;48.520;11.228;2023-05-16T06:26:55;10.50;99.90
12720;DHT22;6424;48.520;11.228;2023-05-16T06:29:36;10.60;99.90
12720;DHT22;6424;48.520;11.228;2023-05-16T06:32:16;10.60;99.90
12720;DHT22;6424;48.520;11.228;2023-05-16T06:34:57;10.70;99.90
12720;DHT22;6424;48.520;11.228;2023-05-16T06:37:38;10.70;99.90
12720;DHT22;6424;48.520;11.228;2023-05-16T06:40:19;10.80;99.90
12720;DHT22;6424;48.520;11.228;2023-05-16T06:43:00;10.80;99.90
12720;DHT22;6424;48.520;11.228;2023-05-16T06:45:41;10.80;99.90
12720;DHT22;6424;48.520;11.228;2023-05-16T06:48:21;10.80;99.90
12720;DHT22;6424;48.520;11.228;2023-05-16T06:51:02;10.90;99.90
12720;DHT22;6424;48.520;11.228;2023-05-16T06:53:43;10.90;99.90
12720;DHT22;6424;48.520;11.228;2023-05-16T06:56:24;10.90;99.90
12720;DHT22;6424;48.520;11.228;2023-05-16T06:59:05;11.00;99.90
12720;DHT22;6424;48.520;11.228;2023-05-16T07:01:46;11.10;99.90
12720;DHT22;6424;48.520;11.228;2023-05-16T07:04:27;11.10;99.90
12720;DHT22;6424;48.520;11.228;2023-05-16T07:07:08;11.20;99.90
12720;DHT22;6424;48.520;11.228;2023-05-16T07:09:49;11.20;99.90
12720;DHT22;6424;48.520;11.228;2023-05-16T07:12:15;11.30;99.90
12720;DHT22;6424;48.520;11.228;2023-05-16T07:14:56;11.30;99.90
12720;DHT22;6424;48.520;11.228;2023-05-16T07:17:37;11.30;99.90
12720;DHT22;6424;48.520;11.228;2023-05-16T07:20:17;11.30;99.90
12720;DHT22;6424;48.520;11.228;2023-05-16T07:22:58;11.30;99.90
12720;DHT22;6424;48.520;11.228;2023-05-16T07:25:39;11.40;99.90
12720;DHT22;6424;48.520;11.228;2023-05-16T07:28:20;11.50;99.90
12720;DHT22;6424;48.520;11.228;2023-05-16T07:31:02;11.50;99.90
12720;DHT22;6424;48.520;11.228;2023-05-16T07:33:43;11.60;99.90
12720;DHT22;6424;48.520;11.228;2023-05-16T07:36:24;11.50;99.90
12720;DHT22;6424;48.520;11.228;2023-05-16T07:39:05;11.60;99.90
12720;DHT22;6424;48.520;11.228;2023-05-16T07:41:46;11.60;99.90
12720;DHT22;6424;48.520;11.228;2023-05-16T07:44:12;11.70;99.90
12720;DHT22;6424;48.520;11.228;2023-05-16T07:46:38;11.80;99.90
12720;DHT22;6424;48.520;11.228;2023-05-16T07:49:18;11.90;99.90
12720;DHT22;6424;48.520;11.228;2023-05-16T07:51:59;11.90;99.90
12720;DHT22;6424;48.520;11.228;2023-05-16T07:54:25;11.90;99.90
12720;DHT22;6424;48.520;11.228;2023-05-16T07:57:06;12.00;99.90
12720;DHT22;6424;48.520;11.228;2023-05-16T07:59:47;12.10;99.90
12720;DHT22;6424;48.520;11.228;2023-05-16T08:02:27;12.30;99.90
12720;DHT22;6424;48.520;11.228;2023-05-16T08:05:10;12.40;99.90
12720;DHT22;6424;48.520;11.228;2023-05-16T08:07:50;12.50;99.90
12720;DHT22;6424;48.520;11.228;2023-05-16T08:10:31;12.60;99.90
12720;DHT22;6424;48.520;11.228;2023-05-16T08:13:12;12.70;99.90
12720;DHT22;6424;48.520;11.228;2023-05-16T08:15:53;12.80;99.90
12720;DHT22;6424;48.520;11.228;2023-05-16T08:18:34;13.10;99.90
12720;DHT22;6424;48.520;11.228;2023-05-16T08:21:15;13.30;99.90
12720;DHT22;6424;48.520;11.228;2023-05-16T08:23:41;13.40;99.90
12720;DHT22;6424;48.520;11.228;2023-05-16T08:26:22;13.40;99.90
12720;DHT22;6424;48.520;11.228;2023-05-16T08:28:49;13.30;99.90
12720;DHT22;6424;48.520;11.228;2023-05-16T08:31:30;13.20;99.90
12720;DHT22;6424;48.520;11.228;2023-05-16T08:34:10;13.20;99.90
12720;DHT22;6424;48.520;11.228;2023-05-16T08:36:51;13.20;99.90
12720;DHT22;6424;48.520;11.228;2023-05-16T08:39:32;13.30;99.90
12720;DHT22;6424;48.520;11.228;2023-05-16T08:42:13;13.30;99.90
12720;DHT22;6424;48.520;11.228;2023-05-16T08:44:54;13.30;99.90
12720;DHT22;6424;48.520;11.228;2023-05-16T08:47:35;13.40;99.90
12720;DHT22;6424;48.520;11.228;2023-05-16T08:50:20;13.50;99.90
12720;DHT22;6424;48.520;11.228;2023-05-16T08:53:06;13.60;99.90
12720;DHT22;6424;48.520;11.228;2023-05-16T08:55:48;13.70;99.90
12720;DHT22;6424;48.520;11.228;2023-05-16T08:58:30;13.70;99.90
12720;DHT22;6424;48.520;11.228;2023-05-16T09:01:11;13.80;99.90
12720;DHT22;6424;48.520;11.228;2023-05-16T09:03:52;13.80;99.90
12720;DHT22;6424;48.520;11.228;2023-05-16T09:06:35;13.80;99.90
12720;DHT22;6424;48.520;11.228;2023-05-16T09:09:16;13.90;99.90
12720;DHT22;6424;48.520;11.228;2023-05-16T09:11:57;14.00;99.90
12720;DHT22;6424;48.520;11.228;2023-05-16T09:14:38;14.00;99.90
12720;DHT22;6424;48.520;11.228;2023-05-16T09:17:18;14.00;99.90
12720;DHT22;6424;48.520;11.228;2023-05-16T09:20:08;14.10;99.90
12720;DHT22;6424;48.520;11.228;2023-05-16T09:22:51;14.10;99.90
12720;DHT22;6424;48.520;11.228;2023-05-16T09:25:17;14.30;99.90
12720;DHT22;6424;48.520;11.228;2023-05-16T09:28:01;14.30;99.90
12720;DHT22;6424;48.520;11.228;2023-05-16T09:30:45;14.30;99.90
12720;DHT22;6424;48.520;11.228;2023-05-16T09:33:27;14.30;99.90
12720;DHT22;6424;48.520;11.228;2023-05-16T09:36:08;14.10;99.90
12720;DHT22;6424;48.520;11.228;2023-05-16T09:38:50;14.10;99.90
12720;DHT22;6424;48.520;11.228;2023-05-16T09:41:16;14.10;99.90
12720;DHT22;6424;48.520;11.228;2023-05-16T09:43:57;14.30;99.90
12720;DHT22;6424;48.520;11.228;2023-05-16T09:46:38;14.30;99.90
12720;DHT22;6424;48.520;11.228;2023-05-16T09:49:04;14.30;99.90
12720;DHT22;6424;48.520;11.228;2023-05-16T09:51:46;14.40;99.90
12720;DHT22;6424;48.520;11.228;2023-05-16T09:54:33;14.50;99.90
12720;DHT22;6424;48.520;11.228;2023-05-16T09:57:21;14.70;99.90
12720;DHT22;6424;48.520;11.228;2023-05-16T10:00:05;14.80;99.90
12720;DHT22;6424;48.520;11.228;2023-05-16T10:02:48;14.70;99.90
12720;DHT22;6424;48.520;11.228;2023-05-16T10:05:30;14.70;99.90
12720;DHT22;6424;48.520;11.228;2023-05-16T10:08:11;14.80;99.90
12720;DHT22;6424;48.520;11.228;2023-05-16T10:10:54;14.90;99.90
12720;DHT22;6424;48.520;11.228;2023-05-16T10:13:36;15.00;99.90
12720;DHT22;6424;48.520;11.228;2023-05-16T10:16:18;15.00;99.90
12720;DHT22;6424;48.520;11.228;2023-05-16T10:19:02;15.10;99.90
12720;DHT22;6424;48.520;11.228;2023-05-16T10:21:59;15.20;99.90
12720;DHT22;6424;48.520;11.228;2023-05-16T10:24:50;15.30;99.90
12720;DHT22;6424;48.520;11.228;2023-05-16T10:27:35;15.30;99.90
12720;DHT22;6424;48.520;11.228;2023-05-16T10:30:16;15.30;99.90
12720;DHT22;6424;48.520;11.228;2023-05-16T10:32:58;15.40;99.90
12720;DHT22;6424;48.520;11.228;2023-05-16T10:35:41;15.30;99.90
12720;DHT22;6424;48.520;11.228;2023-05-16T10:38:22;15.30;99.90
12720;DHT22;6424;48.520;11.228;2023-05-16T10:41:05;15.20;99.90
12720;DHT22;6424;48.520;11.228;2023-05-16T10:43:56;15.20;99.90
12720;DHT22;6424;48.520;11.228;2023-05-16T10:46:37;15.10;99.90
12720;DHT22;6424;48.520;11.228;2023-05-16T10:49:26;15.10;99.90
12720;DHT22;6424;48.520;11.228;2023-05-16T10:52:11;15.20;99.90
12720;DHT22;6424;48.520;11.228;2023-05-16T10:54:52;15.30;99.90
12720;DHT22;6424;48.520;11.228;2023-05-16T10:57:33;15.30;99.90
12720;DHT22;6424;48.520;11.228;2023-05-16T11:00:22;15.10;99.90
12720;DHT22;6424;48.520;11.228;2023-05-16T11:03:06;15.10;99.90
12720;DHT22;6424;48.520;11.228;2023-05-16T11:06:00;15.20;99.90
12720;DHT22;6424;48.520;11.228;2023-05-16T11:09:03;15.20;99.90
12720;DHT22;6424;48.520;11.228;2023-05-16T11:12:02;15.20;99.90
12720;DHT22;6424;48.520;11.228;2023-05-16T11:17:20;15.10;99.90
12720;DHT22;6424;48.520;11.228;2023-05-16T11:20:01;15.00;99.90
12720;DHT22;6424;48.520;11.228;2023-05-16T11:22:28;14.70;99.90
12720;DHT22;6424;48.520;11.228;2023-05-16T11:25:04;14.60;99.90
12720;DHT22;6424;48.520;11.228;2023-05-16T11:27:31;14.50;99.90
12720;DHT22;6424;48.520;11.228;2023-05-16T11:30:14;14.50;99.90
12720;DHT22;6424;48.520;11.228;2023-05-16T11:32:55;14.20;99.90
12720;DHT22;6424;48.520;11.228;2023-05-16T11:35:36;14.00;99.90
12720;DHT22;6424;48.520;11.228;2023-05-16T11:38:17;13.80;99.90
12720;DHT22;6424;48.520;11.228;2023-05-16T11:41:05;13.80;99.90
12720;DHT22;6424;48.520;11.228;2023-05-16T11:43:46;13.80;99.90
12720;DHT22;6424;48.520;11.228;2023-05-16T11:46:27;13.70;99.90
12720;DHT22;6424;48.520;11.228;2023-05-16T11:49:11;13.60;99.90
12720;DHT22;6424;48.520;11.228;2023-05-16T11:51:53;13.70;99.90
12720;DHT22;6424;48.520;11.228;2023-05-16T11:54:34;13.80;99.90
12720;DHT22;6424;48.520;11.228;2023-05-16T11:57:01;13.80;99.90
12720;DHT22;6424;48.520;11.228;2023-05-16T11:59:42;13.70;99.90
12720;DHT22;6424;48.520;11.228;2023-05-16T12:02:23;13.40;99.90
12720;DHT22;6424;48.520;11.228;2023-05-16T12:04:49;13.10;99.90
12720;DHT22;6424;48.520;11.228;2023-05-16T12:07:29;12.90;99.90
12720;DHT22;6424;48.520;11.228;2023-05-16T12:10:12;12.70;99.90
12720;DHT22;6424;48.520;11.228;2023-05-16T12:12:41;12.50;99.90
12720;DHT22;6424;48.520;11.228;2023-05-16T12:15:22;12.50;99.90
12720;DHT22;6424;48.520;11.228;2023-05-16T12:18:03;12.40;99.90
12720;DHT22;6424;48.520;11.228;2023-05-16T12:20:44;12.40;99.90
12720;DHT22;6424;48.520;11.228;2023-05-16T12:23:25;12.50;99.90
12720;DHT22;6424;48.520;11.228;2023-05-16T12:26:07;12.60;99.90
12720;DHT22;6424;48.520;11.228;2023-05-16T12:28:52;12.70;99.90
12720;DHT22;6424;48.520;11.228;2023-05-16T12:31:38;12.70;99.90
12720;DHT22;6424;48.520;11.228;2023-05-16T12:34:14;12.70;99.90
12720;DHT22;6424;48.520;11.228;2023-05-16T12:36:55;12.50;99.90
12720;DHT22;6424;48.520;11.228;2023-05-16T12:39:37;12.40;99.90
12720;DHT22;6424;48.520;11.228;2023-05-16T12:42:18;12.30;99.90
12720;DHT22;6424;48.520;11.228;2023-05-16T12:44:59;12.20;99.90
12720;DHT22;6424;48.520;11.228;2023-05-16T12:47:40;12.10;99.90
12720;DHT22;6424;48.520;11.228;2023-05-16T12:50:21;12.00;99.90
12720;DHT22;6424;48.520;11.228;2023-05-16T12:53:02;11.90;99.90
12720;DHT22;6424;48.520;11.228;2023-05-16T12:55:43;11.90;99.90
12720;DHT22;6424;48.520;11.228;2023-05-16T12:58:24;11.80;99.90
12720;DHT22;6424;48.520;11.228;2023-05-16T13:01:05;11.80;99.90
12720;DHT22;6424;48.520;11.228;2023-05-16T13:03:46;11.80;99.90
12720;DHT22;6424;48.520;11.228;2023-05-16T13:06:27;11.90;99.90
12720;DHT22;6424;48.520;11.228;2023-05-16T13:09:08;12.00;99.90
12720;DHT22;6424;48.520;11.228;2023-05-16T13:11:50;12.10;99.90
12720;DHT22;6424;48.520;11.228;2023-05-16T13:14:16;12.10;99.90
12720;DHT22;6424;48.520;11.228;2023-05-16T13:16:57;12.20;99.90
12720;DHT22;6424;48.520;11.228;2023-05-16T13:19:38;12.20;99.90
12720;DHT22;6424;48.520;11.228;2023-05-16T13:22:19;12.20;99.90
12720;DHT22;6424;48.520;11.228;2023-05-16T13:25:00;12.20;99.90
12720;DHT22;6424;48.520;11.228;2023-05-16T13:27:25;12.20;99.90
12720;DHT22;6424;48.520;11.228;2023-05-16T13:30:06;12.20;99.90
12720;DHT22;6424;48.520;11.228;2023-05-16T13:32:47;12.10;99.90
12720;DHT22;6424;48.520;11.228;2023-05-16T13:35:28;12.10;99.90
12720;DHT22;6424;48.520;11.228;2023-05-16T13:38:09;12.00;99.90
12720;DHT22;6424;48.520;11.228;2023-05-16T13:40:35;11.90;99.90
12720;DHT22;6424;48.520;11.228;2023-05-16T13:43:16;11.90;99.90
12720;DHT22;6424;48.520;11.228;2023-05-16T13:45:57;11.90;99.90
12720;DHT22;6424;48.520;11.228;2023-05-16T13:48:37;11.90;99.90
12720;DHT22;6424;48.520;11.228;2023-05-16T13:51:18;11.80;99.90
12720;DHT22;6424;48.520;11.228;2023-05-16T13:53:59;11.70;99.90
12720;DHT22;6424;48.520;11.228;2023-05-16T13:56:26;11.70;99.90
12720;DHT22;6424;48.520;11.228;2023-05-16T13:58:52;11.70;99.90
12720;DHT22;6424;48.520;11.228;2023-05-16T14:01:32;11.60;99.90
12720;DHT22;6424;48.520;11.228;2023-05-16T14:04:13;11.60;99.90
12720;DHT22;6424;48.520;11.228;2023-05-16T14:06:54;11.60;99.90
12720;DHT22;6424;48.520;11.228;2023-05-16T14:09:21;11.40;99.90
12720;DHT22;6424;48.520;11.228;2023-05-16T14:12:01;11.30;99.90
12720;DHT22;6424;48.520;11.228;2023-05-16T14:14:42;11.20;99.90
12720;DHT22;6424;48.520;11.228;2023-05-16T14:17:23;11.20;99.90
12720;DHT22;6424;48.520;11.228;2023-05-16T14:20:04;11.10;99.90
12720;DHT22;6424;48.520;11.228;2023-05-16T14:22:34;11.10;99.90
12720;DHT22;6424;48.520;11.228;2023-05-16T14:25:14;11.10;99.90
12720;DHT22;6424;48.520;11.228;2023-05-16T14:27:55;11.10;99.90
12720;DHT22;6424;48.520;11.228;2023-05-16T14:30:36;11.20;99.90
12720;DHT22;6424;48.520;11.228;2023-05-16T14:33:17;11.20;99.90
12720;DHT22;6424;48.520;11.228;2023-05-16T14:35:57;11.20;99.90
12720;DHT22;6424;48.520;11.228;2023-05-16T14:38:38;11.20;99.90
12720;DHT22;6424;48.520;11.228;2023-05-16T14:41:19;11.20;99.90
12720;DHT22;6424;48.520;11.228;2023-05-16T14:44:00;11.30;99.90
12720;DHT22;6424;48.520;11.228;2023-05-16T14:46:41;11.30;99.90
12720;DHT22;6424;48.520;11.228;2023-05-16T14:49:22;11.40;99.90
12720;DHT22;6424;48.520;11.228;2023-05-16T14:52:03;11.50;99.90
12720;DHT22;6424;48.520;11.228;2023-05-16T14:54:44;11.60;99.90
12720;DHT22;6424;48.520;11.228;2023-05-16T14:57:25;11.70;99.90
12720;DHT22;6424;48.520;11.228;2023-05-16T15:00:07;11.80;99.90
12720;DHT22;6424;48.520;11.228;2023-05-16T15:02:50;11.90;99.90
12720;DHT22;6424;48.520;11.228;2023-05-16T15:05:31;12.00;99.90
12720;DHT22;6424;48.520;11.228;2023-05-16T15:07:57;12.00;99.90
12720;DHT22;6424;48.520;11.228;2023-05-16T15:10:38;12.00;99.90
12720;DHT22;6424;48.520;11.228;2023-05-16T15:13:18;12.10;99.90
12720;DHT22;6424;48.520;11.228;2023-05-16T15:15:59;12.10;99.90
12720;DHT22;6424;48.520;11.228;2023-05-16T15:18:40;12.00;99.90
12720;DHT22;6424;48.520;11.228;2023-05-16T15:21:21;11.90;99.90
12720;DHT22;6424;48.520;11.228;2023-05-16T15:24:03;11.90;99.90
12720;DHT22;6424;48.520;11.228;2023-05-16T15:26:43;11.80;99.90
12720;DHT22;6424;48.520;11.228;2023-05-16T15:29:25;11.90;99.90
12720;DHT22;6424;48.520;11.228;2023-05-16T15:32:06;11.90;99.90
12720;DHT22;6424;48.520;11.228;2023-05-16T15:34:46;11.90;99.90
12720;DHT22;6424;48.520;11.228;2023-05-16T15:37:27;11.90;99.90
12720;DHT22;6424;48.520;11.228;2023-05-16T15:40:09;11.90;99.90
12720;DHT22;6424;48.520;11.228;2023-05-16T15:42:50;11.90;99.90
12720;DHT22;6424;48.520;11.228;2023-05-16T15:45:32;11.90;99.90
12720;DHT22;6424;48.520;11.228;2023-05-16T15:48:13;11.90;99.90
12720;DHT22;6424;48.520;11.228;2023-05-16T15:50:53;11.70;99.90
12720;DHT22;6424;48.520;11.228;2023-05-16T15:53:19;11.70;99.90
12720;DHT22;6424;48.520;11.228;2023-05-16T15:56:00;11.70;99.90
12720;DHT22;6424;48.520;11.228;2023-05-16T15:58:41;11.70;99.90
12720;DHT22;6424;48.520;11.228;2023-05-16T16:01:23;11.70;99.90
12720;DHT22;6424;48.520;11.228;2023-05-16T16:03:48;11.70;99.90
12720;DHT22;6424;48.520;11.228;2023-05-16T16:06:29;11.70;99.90
12720;DHT22;6424;48.520;11.228;2023-05-16T16:09:10;11.60;99.90
12720;DHT22;6424;48.520;11.228;2023-05-16T16:11:51;11.50;99.90
12720;DHT22;6424;48.520;11.228;2023-05-16T16:14:22;11.40;99.90
12720;DHT22;6424;48.520;11.228;2023-05-16T16:17:03;11.50;99.90
12720;DHT22;6424;48.520;11.228;2023-05-16T16:19:44;11.50;99.90
12720;DHT22;6424;48.520;11.228;2023-05-16T16:22:24;11.60;99.90
12720;DHT22;6424;48.520;11.228;2023-05-16T16:25:05;11.60;99.90
12720;DHT22;6424;48.520;11.228;2023-05-16T16:27:46;11.70;99.90
12720;DHT22;6424;48.520;11.228;2023-05-16T16:30:12;11.70;99.90
12720;DHT22;6424;48.520;11.228;2023-05-16T16:32:53;11.70;99.90
12720;DHT22;6424;48.520;11.228;2023-05-16T16:35:34;11.80;99.90
12720;DHT22;6424;48.520;11.228;2023-05-16T16:38:15;11.70;99.90
12720;DHT22;6424;48.520;11.228;2023-05-16T16:40:55;11.70;99.90
12720;DHT22;6424;48.520;11.228;2023-05-16T16:43:36;11.70;99.90
12720;DHT22;6424;48.520;11.228;2023-05-16T16:46:20;11.60;99.90
12720;DHT22;6424;48.520;11.228;2023-05-16T16:49:02;11.60;99.90
12720;DHT22;6424;48.520;11.228;2023-05-16T16:51:43;11.60;99.90
12720;DHT22;6424;48.520;11.228;2023-05-16T16:54:25;11.50;99.90
12720;DHT22;6424;48.520;11.228;2023-05-16T16:57:07;11.50;99.90
12720;DHT22;6424;48.520;11.228;2023-05-16T16:59:48;11.40;99.90
12720;DHT22;6424;48.520;11.228;2023-05-16T17:02:28;11.40;99.90
12720;DHT22;6424;48.520;11.228;2023-05-16T17:05:09;11.30;99.90